Hersham, United Kingdom

9:02 PM BST on August 03, 2015 (GMT +0100)
Hersham | | Change Station
CLOSE
Current Station
Personal Weather Station
Location: Walton-on-Thames, Surrey
Elevation: 56 ft
Nearby Weather Stations

Elev 56 ft 51.37 °N, 0.41 °W | Updated 21 days ago

Partly Cloudy
Partly Cloudy
64 °F
Feels Like 64 °F
N
11
Wind Variable Wind from SW
Gusts 20 mph

Today
High -- | Low -- °F
--% Chance of Precip.
Yesterday
High -- | Low -- °F
Precip. -- in
5:28 AM 8:46 PM
Waning Gibbous, 84% visible
Pressure 29.86 in
Visibility 6.2 miles
Clouds Few 2500 ft
Dew Point 55 °F
Humidity 73%
Rainfall in
Snow Depth Not available.
UV 0 out of 12
Pollen Not available.
Air Quality Not available.
Flu Activity Not available.
METAR EGLL 031950Z 20009KT 9999 FEW025 18/14 Q1011 NOSIG

More Conditions Fewer Conditions

Pressure 29.86 in
Visibility 6.2 miles
Clouds Few 2500 ft
Dew Point 55 °F
Humidity 73%
Rainfall in
Snow Depth Not available.
UV 0 out of 12
Pollen Not available.
Air Quality Not available.
Flu Activity Not available.
METAR EGLL 031950Z 20009KT 9999 FEW025 18/14 Q1011 NOSIG

More Conditions Fewer Conditions

10-Day Weather Forecast

×

Almanac

Astronomy

Aug. 03, 2015 Rise Set
Actual Time
Civil Twilight
Nautical Twilight
Astronomical Twilight
Moon
Length of Visible Light
Length of Day
Tomorrow will be .
, % of the Moon is Illuminated

Today's Extremes

Country Highs Country Lows

Community

WunderPhotos

Upload Photos

1,843,720 photos uploaded!

WunderBlogs® & News

Nearby

Air Quality

  Air Quality AQ Index Pollutant
Not available.

Snow Depth

Station Depth Elevation

Earthquake Activity

City Distance Mag. Time & Date
Minimum magnitude displayed is 2.5.

Coastal Water Temperatures

Place Temperature

Stations

Nearby Weather Stations

Station Location Temp. Windchill Dew Point Humidity Wind Precip. Elev Updated Type